sensor_id;sensor_type;location;lat;lon;timestamp;P1;durP1;ratioP1;P2;durP2;ratioP2
572;SDS011;271;51.114;13.780;2022-09-30T00:00:39;23.30;;;8.20;;
572;SDS011;271;51.114;13.780;2022-09-30T00:03:06;23.75;;;9.38;;
572;SDS011;271;51.114;13.780;2022-09-30T00:05:33;24.08;;;8.38;;
572;SDS011;271;51.114;13.780;2022-09-30T00:08:00;24.58;;;8.18;;
572;SDS011;271;51.114;13.780;2022-09-30T00:10:28;22.88;;;8.07;;
572;SDS011;271;51.114;13.780;2022-09-30T00:12:55;22.73;;;7.45;;
572;SDS011;271;51.114;13.780;2022-09-30T00:15:24;19.55;;;6.10;;
572;SDS011;271;51.114;13.780;2022-09-30T00:17:52;24.83;;;7.75;;
572;SDS011;271;51.114;13.780;2022-09-30T00:20:20;22.65;;;6.85;;
572;SDS011;271;51.114;13.780;2022-09-30T00:22:47;21.20;;;7.10;;
572;SDS011;271;51.114;13.780;2022-09-30T00:25:14;23.57;;;6.57;;
572;SDS011;271;51.114;13.780;2022-09-30T00:27:42;21.00;;;6.00;;
572;SDS011;271;51.114;13.780;2022-09-30T00:30:09;22.20;;;7.10;;
572;SDS011;271;51.114;13.780;2022-09-30T00:32:38;24.17;;;7.25;;
572;SDS011;271;51.114;13.780;2022-09-30T00:35:05;22.40;;;5.67;;
572;SDS011;271;51.114;13.780;2022-09-30T00:37:33;20.50;;;6.65;;
572;SDS011;271;51.114;13.780;2022-09-30T00:40:00;22.33;;;7.20;;
572;SDS011;271;51.114;13.780;2022-09-30T00:42:27;22.98;;;8.45;;
572;SDS011;271;51.114;13.780;2022-09-30T00:44:55;22.17;;;7.47;;
572;SDS011;271;51.114;13.780;2022-09-30T00:47:30;21.92;;;7.82;;
572;SDS011;271;51.114;13.780;2022-09-30T00:50:26;21.42;;;7.38;;
572;SDS011;271;51.114;13.780;2022-09-30T00:52:59;21.20;;;6.80;;
572;SDS011;271;51.114;13.780;2022-09-30T00:55:33;21.38;;;6.95;;
572;SDS011;271;51.114;13.780;2022-09-30T00:58:08;21.05;;;6.82;;
572;SDS011;271;51.114;13.780;2022-09-30T01:00:41;22.50;;;7.25;;
572;SDS011;271;51.114;13.780;2022-09-30T01:03:10;24.08;;;8.43;;
572;SDS011;271;51.114;13.780;2022-09-30T01:05:37;21.52;;;7.18;;
572;SDS011;271;51.114;13.780;2022-09-30T01:08:05;23.08;;;7.45;;
572;SDS011;271;51.114;13.780;2022-09-30T01:10:34;21.20;;;7.30;;
572;SDS011;271;51.114;13.780;2022-09-30T01:13:02;21.42;;;6.68;;
572;SDS011;271;51.114;13.780;2022-09-30T01:15:34;20.50;;;6.50;;
572;SDS011;271;51.114;13.780;2022-09-30T01:18:17;22.80;;;7.88;;
572;SDS011;271;51.114;13.780;2022-09-30T01:20:53;23.75;;;7.95;;
572;SDS011;271;51.114;13.780;2022-09-30T01:23:49;22.10;;;8.13;;
572;SDS011;271;51.114;13.780;2022-09-30T01:26:39;23.25;;;7.53;;
572;SDS011;271;51.114;13.780;2022-09-30T01:32:17;23.88;;;7.32;;
572;SDS011;271;51.114;13.780;2022-09-30T01:34:57;21.05;;;7.20;;
572;SDS011;271;51.114;13.780;2022-09-30T01:37:37;22.05;;;7.22;;
572;SDS011;271;51.114;13.780;2022-09-30T01:40:13;22.27;;;7.80;;
572;SDS011;271;51.114;13.780;2022-09-30T01:42:50;23.80;;;7.70;;
572;SDS011;271;51.114;13.780;2022-09-30T01:45:24;22.43;;;7.27;;
572;SDS011;271;51.114;13.780;2022-09-30T01:48:01;23.90;;;7.72;;
572;SDS011;271;51.114;13.780;2022-09-30T01:50:33;21.73;;;6.90;;
572;SDS011;271;51.114;13.780;2022-09-30T01:53:10;23.08;;;7.85;;
572;SDS011;271;51.114;13.780;2022-09-30T01:55:47;21.83;;;7.15;;
572;SDS011;271;51.114;13.780;2022-09-30T01:58:18;23.20;;;8.48;;
572;SDS011;271;51.114;13.780;2022-09-30T02:00:51;23.63;;;8.35;;
572;SDS011;271;51.114;13.780;2022-09-30T02:03:25;22.85;;;8.93;;
572;SDS011;271;51.114;13.780;2022-09-30T02:05:57;22.90;;;8.70;;
572;SDS011;271;51.114;13.780;2022-09-30T02:08:30;24.10;;;8.48;;
572;SDS011;271;51.114;13.780;2022-09-30T02:11:04;24.33;;;8.85;;
572;SDS011;271;51.114;13.780;2022-09-30T02:13:35;23.33;;;8.48;;
572;SDS011;271;51.114;13.780;2022-09-30T02:16:10;24.92;;;7.80;;
572;SDS011;271;51.114;13.780;2022-09-30T02:18:44;25.05;;;7.60;;
572;SDS011;271;51.114;13.780;2022-09-30T02:21:16;22.75;;;7.35;;
572;SDS011;271;51.114;13.780;2022-09-30T02:23:47;22.15;;;8.23;;
572;SDS011;271;51.114;13.780;2022-09-30T02:26:19;22.90;;;7.80;;
572;SDS011;271;51.114;13.780;2022-09-30T02:28:50;22.65;;;7.63;;
572;SDS011;271;51.114;13.780;2022-09-30T02:31:21;23.77;;;7.97;;
572;SDS011;271;51.114;13.780;2022-09-30T02:33:52;21.75;;;7.57;;
572;SDS011;271;51.114;13.780;2022-09-30T02:36:27;24.27;;;8.65;;
572;SDS011;271;51.114;13.780;2022-09-30T02:38:58;24.48;;;9.13;;
572;SDS011;271;51.114;13.780;2022-09-30T02:41:28;23.35;;;7.90;;
572;SDS011;271;51.114;13.780;2022-09-30T02:44:00;24.40;;;8.43;;
572;SDS011;271;51.114;13.780;2022-09-30T02:46:31;23.30;;;7.80;;
572;SDS011;271;51.114;13.780;2022-09-30T02:49:06;22.60;;;8.25;;
572;SDS011;271;51.114;13.780;2022-09-30T02:51:44;23.35;;;8.32;;
572;SDS011;271;51.114;13.780;2022-09-30T02:54:23;23.25;;;7.75;;
572;SDS011;271;51.114;13.780;2022-09-30T02:56:57;21.98;;;7.68;;
572;SDS011;271;51.114;13.780;2022-09-30T02:59:31;22.88;;;7.35;;
572;SDS011;271;51.114;13.780;2022-09-30T03:01:59;23.90;;;8.35;;
572;SDS011;271;51.114;13.780;2022-09-30T03:04:28;23.80;;;8.15;;
572;SDS011;271;51.114;13.780;2022-09-30T03:07:00;21.02;;;7.53;;
572;SDS011;271;51.114;13.780;2022-09-30T03:09:27;22.33;;;7.55;;
572;SDS011;271;51.114;13.780;2022-09-30T03:11:58;23.73;;;7.80;;
572;SDS011;271;51.114;13.780;2022-09-30T03:14:38;22.67;;;7.82;;
572;SDS011;271;51.114;13.780;2022-09-30T03:20:16;23.30;;;7.78;;
572;SDS011;271;51.114;13.780;2022-09-30T03:23:00;21.60;;;7.25;;
572;SDS011;271;51.114;13.780;2022-09-30T03:25:55;23.08;;;8.30;;
572;SDS011;271;51.114;13.780;2022-09-30T03:28:33;23.52;;;8.43;;
572;SDS011;271;51.114;13.780;2022-09-30T03:31:07;22.58;;;7.63;;
572;SDS011;271;51.114;13.780;2022-09-30T03:33:40;24.35;;;9.07;;
572;SDS011;271;51.114;13.780;2022-09-30T03:36:17;25.15;;;8.05;;
572;SDS011;271;51.114;13.780;2022-09-30T03:38:51;23.52;;;8.65;;
572;SDS011;271;51.114;13.780;2022-09-30T03:41:27;24.10;;;8.82;;
572;SDS011;271;51.114;13.780;2022-09-30T03:43:59;23.67;;;8.05;;
572;SDS011;271;51.114;13.780;2022-09-30T03:46:34;24.35;;;8.70;;
572;SDS011;271;51.114;13.780;2022-09-30T03:49:07;23.17;;;8.45;;
572;SDS011;271;51.114;13.780;2022-09-30T03:51:39;26.67;;;8.90;;
572;SDS011;271;51.114;13.780;2022-09-30T03:54:07;22.90;;;8.02;;
572;SDS011;271;51.114;13.780;2022-09-30T03:56:35;24.85;;;8.93;;
572;SDS011;271;51.114;13.780;2022-09-30T03:59:07;26.13;;;8.60;;
572;SDS011;271;51.114;13.780;2022-09-30T04:01:36;26.90;;;8.55;;
572;SDS011;271;51.114;13.780;2022-09-30T04:04:04;24.35;;;9.07;;
572;SDS011;271;51.114;13.780;2022-09-30T04:06:31;23.35;;;7.72;;
572;SDS011;271;51.114;13.780;2022-09-30T04:09:00;25.77;;;8.43;;
572;SDS011;271;51.114;13.780;2022-09-30T04:11:27;24.00;;;7.63;;
572;SDS011;271;51.114;13.780;2022-09-30T04:13:54;25.20;;;8.32;;
572;SDS011;271;51.114;13.780;2022-09-30T04:16:21;25.40;;;8.15;;
572;SDS011;271;51.114;13.780;2022-09-30T04:18:49;22.35;;;7.55;;
572;SDS011;271;51.114;13.780;2022-09-30T04:21:16;23.40;;;8.55;;
572;SDS011;271;51.114;13.780;2022-09-30T04:23:43;23.00;;;7.68;;
572;SDS011;271;51.114;13.780;2022-09-30T04:26:12;21.75;;;7.70;;
572;SDS011;271;51.114;13.780;2022-09-30T04:28:42;22.58;;;7.50;;
572;SDS011;271;51.114;13.780;2022-09-30T04:31:09;22.05;;;7.50;;
572;SDS011;271;51.114;13.780;2022-09-30T04:33:38;22.77;;;8.02;;
572;SDS011;271;51.114;13.780;2022-09-30T04:36:06;23.65;;;8.35;;
572;SDS011;271;51.114;13.780;2022-09-30T04:38:34;23.63;;;8.15;;
572;SDS011;271;51.114;13.780;2022-09-30T04:41:01;22.40;;;7.35;;
572;SDS011;271;51.114;13.780;2022-09-30T04:43:31;24.98;;;8.52;;
572;SDS011;271;51.114;13.780;2022-09-30T04:45:59;25.15;;;9.13;;
572;SDS011;271;51.114;13.780;2022-09-30T04:48:26;22.90;;;7.80;;
572;SDS011;271;51.114;13.780;2022-09-30T04:50:56;22.83;;;7.45;;
572;SDS011;271;51.114;13.780;2022-09-30T04:53:25;23.38;;;7.95;;
572;SDS011;271;51.114;13.780;2022-09-30T04:55:56;23.25;;;9.32;;
572;SDS011;271;51.114;13.780;2022-09-30T04:58:25;24.27;;;10.40;;
572;SDS011;271;51.114;13.780;2022-09-30T05:00:59;27.00;;;10.70;;
572;SDS011;271;51.114;13.780;2022-09-30T05:03:27;29.02;;;12.57;;
572;SDS011;271;51.114;13.780;2022-09-30T05:05:55;27.27;;;11.40;;
572;SDS011;271;51.114;13.780;2022-09-30T05:08:22;25.95;;;11.25;;
572;SDS011;271;51.114;13.780;2022-09-30T05:10:53;23.80;;;9.65;;
572;SDS011;271;51.114;13.780;2022-09-30T05:13:21;23.17;;;9.43;;
572;SDS011;271;51.114;13.780;2022-09-30T05:15:50;24.20;;;9.30;;
572;SDS011;271;51.114;13.780;2022-09-30T05:18:19;24.98;;;10.45;;
572;SDS011;271;51.114;13.780;2022-09-30T05:20:47;24.20;;;9.90;;
572;SDS011;271;51.114;13.780;2022-09-30T05:23:15;23.85;;;9.43;;
572;SDS011;271;51.114;13.780;2022-09-30T05:25:43;26.27;;;10.18;;
572;SDS011;271;51.114;13.780;2022-09-30T05:28:10;26.33;;;9.05;;
572;SDS011;271;51.114;13.780;2022-09-30T05:30:37;23.95;;;9.57;;
572;SDS011;271;51.114;13.780;2022-09-30T05:33:06;23.88;;;9.82;;
572;SDS011;271;51.114;13.780;2022-09-30T05:35:35;24.80;;;10.65;;
572;SDS011;271;51.114;13.780;2022-09-30T05:38:02;24.70;;;11.23;;
572;SDS011;271;51.114;13.780;2022-09-30T05:40:30;26.02;;;11.63;;
572;SDS011;271;51.114;13.780;2022-09-30T05:42:57;26.98;;;11.70;;
572;SDS011;271;51.114;13.780;2022-09-30T05:45:25;24.88;;;10.77;;
572;SDS011;271;51.114;13.780;2022-09-30T05:47:53;27.27;;;10.75;;
572;SDS011;271;51.114;13.780;2022-09-30T05:50:20;26.88;;;12.23;;
572;SDS011;271;51.114;13.780;2022-09-30T05:52:50;28.40;;;12.48;;
572;SDS011;271;51.114;13.780;2022-09-30T05:55:18;25.90;;;11.32;;
572;SDS011;271;51.114;13.780;2022-09-30T05:57:47;25.75;;;11.63;;
572;SDS011;271;51.114;13.780;2022-09-30T06:00:16;27.05;;;12.70;;
572;SDS011;271;51.114;13.780;2022-09-30T06:02:43;28.50;;;13.30;;
572;SDS011;271;51.114;13.780;2022-09-30T06:05:11;25.00;;;10.35;;
572;SDS011;271;51.114;13.780;2022-09-30T06:07:38;27.35;;;10.10;;
572;SDS011;271;51.114;13.780;2022-09-30T06:10:07;24.02;;;9.73;;
572;SDS011;271;51.114;13.780;2022-09-30T06:12:36;26.42;;;9.70;;
572;SDS011;271;51.114;13.780;2022-09-30T06:15:05;22.00;;;8.45;;
572;SDS011;271;51.114;13.780;2022-09-30T06:17:33;23.23;;;7.80;;
572;SDS011;271;51.114;13.780;2022-09-30T06:20:00;23.05;;;7.80;;
572;SDS011;271;51.114;13.780;2022-09-30T06:22:30;21.30;;;8.05;;
572;SDS011;271;51.114;13.780;2022-09-30T06:25:01;25.27;;;8.13;;
572;SDS011;271;51.114;13.780;2022-09-30T06:27:31;22.30;;;8.77;;
572;SDS011;271;51.114;13.780;2022-09-30T06:29:59;23.02;;;8.90;;
572;SDS011;271;51.114;13.780;2022-09-30T06:32:26;23.77;;;8.18;;
572;SDS011;271;51.114;13.780;2022-09-30T06:34:54;23.08;;;7.85;;
572;SDS011;271;51.114;13.780;2022-09-30T06:37:22;23.40;;;8.80;;
572;SDS011;271;51.114;13.780;2022-09-30T06:39:50;23.35;;;8.43;;
572;SDS011;271;51.114;13.780;2022-09-30T06:42:17;25.13;;;9.87;;
572;SDS011;271;51.114;13.780;2022-09-30T06:44:46;22.88;;;9.02;;
572;SDS011;271;51.114;13.780;2022-09-30T06:47:13;21.80;;;7.00;;
572;SDS011;271;51.114;13.780;2022-09-30T06:49:40;22.58;;;7.40;;
572;SDS011;271;51.114;13.780;2022-09-30T06:52:08;24.25;;;7.35;;
572;SDS011;271;51.114;13.780;2022-09-30T06:54:36;22.15;;;7.65;;
572;SDS011;271;51.114;13.780;2022-09-30T06:57:03;22.23;;;7.53;;
572;SDS011;271;51.114;13.780;2022-09-30T06:59:31;23.33;;;8.27;;
572;SDS011;271;51.114;13.780;2022-09-30T07:01:59;27.10;;;10.18;;
572;SDS011;271;51.114;13.780;2022-09-30T07:04:26;21.20;;;7.40;;
572;SDS011;271;51.114;13.780;2022-09-30T07:06:54;24.13;;;7.70;;
572;SDS011;271;51.114;13.780;2022-09-30T07:09:21;23.55;;;8.13;;
572;SDS011;271;51.114;13.780;2022-09-30T07:11:48;23.87;;;8.87;;
572;SDS011;271;51.114;13.780;2022-09-30T07:14:16;22.77;;;8.40;;
572;SDS011;271;51.114;13.780;2022-09-30T07:16:43;22.67;;;8.40;;
572;SDS011;271;51.114;13.780;2022-09-30T07:19:12;23.90;;;8.93;;
572;SDS011;271;51.114;13.780;2022-09-30T07:21:39;22.73;;;8.50;;
572;SDS011;271;51.114;13.780;2022-09-30T07:24:06;24.60;;;9.20;;
572;SDS011;271;51.114;13.780;2022-09-30T07:26:34;22.00;;;8.33;;
572;SDS011;271;51.114;13.780;2022-09-30T07:29:01;26.43;;;10.17;;
572;SDS011;271;51.114;13.780;2022-09-30T07:31:28;24.07;;;10.20;;
572;SDS011;271;51.114;13.780;2022-09-30T07:33:55;24.77;;;9.37;;
572;SDS011;271;51.114;13.780;2022-09-30T07:36:24;21.97;;;9.00;;
572;SDS011;271;51.114;13.780;2022-09-30T07:38:54;25.43;;;10.17;;
572;SDS011;271;51.114;13.780;2022-09-30T07:41:23;21.77;;;8.87;;
572;SDS011;271;51.114;13.780;2022-09-30T07:43:54;22.87;;;7.87;;
572;SDS011;271;51.114;13.780;2022-09-30T07:46:24;21.50;;;8.70;;
572;SDS011;271;51.114;13.780;2022-09-30T07:48:55;25.43;;;7.50;;
572;SDS011;271;51.114;13.780;2022-09-30T07:51:28;23.10;;;8.73;;
572;SDS011;271;51.114;13.780;2022-09-30T07:53:57;21.90;;;8.10;;
572;SDS011;271;51.114;13.780;2022-09-30T07:56:26;22.33;;;8.10;;
572;SDS011;271;51.114;13.780;2022-09-30T07:58:54;25.70;;;9.93;;
572;SDS011;271;51.114;13.780;2022-09-30T08:01:24;21.80;;;8.63;;
572;SDS011;271;51.114;13.780;2022-09-30T08:03:52;22.20;;;8.33;;
572;SDS011;271;51.114;13.780;2022-09-30T08:06:22;24.03;;;8.50;;
572;SDS011;271;51.114;13.780;2022-09-30T08:08:52;22.30;;;8.00;;
572;SDS011;271;51.114;13.780;2022-09-30T08:11:21;24.40;;;8.83;;
572;SDS011;271;51.114;13.780;2022-09-30T08:13:49;23.33;;;10.37;;
572;SDS011;271;51.114;13.780;2022-09-30T08:16:17;22.67;;;9.47;;
572;SDS011;271;51.114;13.780;2022-09-30T08:18:45;21.63;;;7.83;;
572;SDS011;271;51.114;13.780;2022-09-30T08:21:13;20.50;;;6.57;;
572;SDS011;271;51.114;13.780;2022-09-30T08:23:40;20.70;;;7.20;;
572;SDS011;271;51.114;13.780;2022-09-30T08:26:09;21.87;;;7.80;;
572;SDS011;271;51.114;13.780;2022-09-30T08:28:37;21.30;;;7.60;;
572;SDS011;271;51.114;13.780;2022-09-30T08:31:06;20.70;;;7.40;;
572;SDS011;271;51.114;13.780;2022-09-30T08:33:35;19.07;;;5.33;;
572;SDS011;271;51.114;13.780;2022-09-30T08:36:03;19.70;;;5.83;;
572;SDS011;271;51.114;13.780;2022-09-30T08:38:32;20.47;;;5.83;;
572;SDS011;271;51.114;13.780;2022-09-30T08:41:04;19.47;;;5.90;;
572;SDS011;271;51.114;13.780;2022-09-30T08:43:45;19.97;;;6.07;;
572;SDS011;271;51.114;13.780;2022-09-30T08:46:29;19.37;;;5.77;;
572;SDS011;271;51.114;13.780;2022-09-30T08:49:09;19.60;;;5.70;;
572;SDS011;271;51.114;13.780;2022-09-30T08:51:53;18.57;;;5.03;;
572;SDS011;271;51.114;13.780;2022-09-30T08:54:22;18.93;;;5.80;;
572;SDS011;271;51.114;13.780;2022-09-30T08:56:53;19.33;;;5.43;;
572;SDS011;271;51.114;13.780;2022-09-30T08:59:23;18.53;;;5.33;;
572;SDS011;271;51.114;13.780;2022-09-30T09:01:58;18.40;;;5.40;;
572;SDS011;271;51.114;13.780;2022-09-30T09:04:27;18.70;;;5.50;;
572;SDS011;271;51.114;13.780;2022-09-30T09:06:56;18.87;;;6.10;;
572;SDS011;271;51.114;13.780;2022-09-30T09:09:31;19.40;;;6.33;;
572;SDS011;271;51.114;13.780;2022-09-30T09:12:22;19.43;;;5.90;;
572;SDS011;271;51.114;13.780;2022-09-30T09:15:02;18.47;;;5.30;;
572;SDS011;271;51.114;13.780;2022-09-30T09:17:44;20.10;;;5.43;;
572;SDS011;271;51.114;13.780;2022-09-30T09:20:27;17.53;;;4.83;;
572;SDS011;271;51.114;13.780;2022-09-30T09:22:59;17.93;;;4.53;;
572;SDS011;271;51.114;13.780;2022-09-30T09:25:29;19.23;;;4.27;;
572;SDS011;271;51.114;13.780;2022-09-30T09:27:58;18.17;;;4.70;;
572;SDS011;271;51.114;13.780;2022-09-30T09:30:28;16.90;;;4.00;;
572;SDS011;271;51.114;13.780;2022-09-30T09:32:59;17.07;;;4.20;;
572;SDS011;271;51.114;13.780;2022-09-30T09:35:35;17.23;;;4.20;;
572;SDS011;271;51.114;13.780;2022-09-30T09:38:13;17.03;;;4.17;;
572;SDS011;271;51.114;13.780;2022-09-30T09:40:57;16.73;;;3.90;;
572;SDS011;271;51.114;13.780;2022-09-30T09:43:49;18.43;;;3.60;;
572;SDS011;271;51.114;13.780;2022-09-30T09:46:24;15.87;;;3.70;;
572;SDS011;271;51.114;13.780;2022-09-30T09:51:53;16.87;;;3.27;;
572;SDS011;271;51.114;13.780;2022-09-30T09:54:52;15.60;;;2.80;;
572;SDS011;271;51.114;13.780;2022-09-30T09:57:22;15.80;;;3.13;;
572;SDS011;271;51.114;13.780;2022-09-30T09:59:57;16.33;;;3.40;;
572;SDS011;271;51.114;13.780;2022-09-30T10:02:52;17.20;;;3.57;;
572;SDS011;271;51.114;13.780;2022-09-30T10:05:26;16.50;;;2.90;;
572;SDS011;271;51.114;13.780;2022-09-30T10:08:07;16.33;;;3.30;;
572;SDS011;271;51.114;13.780;2022-09-30T10:10:46;15.90;;;2.73;;
572;SDS011;271;51.114;13.780;2022-09-30T10:13:16;16.83;;;2.83;;
572;SDS011;271;51.114;13.780;2022-09-30T10:15:46;16.20;;;2.80;;
572;SDS011;271;51.114;13.780;2022-09-30T10:18:17;15.40;;;2.87;;
572;SDS011;271;51.114;13.780;2022-09-30T10:20:51;16.87;;;3.40;;
572;SDS011;271;51.114;13.780;2022-09-30T10:23:20;15.60;;;2.53;;
572;SDS011;271;51.114;13.780;2022-09-30T10:25:55;15.13;;;2.40;;
572;SDS011;271;51.114;13.780;2022-09-30T10:28:25;15.37;;;2.33;;
572;SDS011;271;51.114;13.780;2022-09-30T10:30:57;15.87;;;2.80;;
572;SDS011;271;51.114;13.780;2022-09-30T10:33:28;15.87;;;2.60;;
572;SDS011;271;51.114;13.780;2022-09-30T10:36:03;15.83;;;2.80;;
572;SDS011;271;51.114;13.780;2022-09-30T10:38:43;15.00;;;2.47;;
572;SDS011;271;51.114;13.780;2022-09-30T10:41:13;15.20;;;2.27;;
572;SDS011;271;51.114;13.780;2022-09-30T10:43:48;16.20;;;2.43;;
572;SDS011;271;51.114;13.780;2022-09-30T10:46:21;17.93;;;3.20;;
572;SDS011;271;51.114;13.780;2022-09-30T10:48:50;15.53;;;2.40;;
572;SDS011;271;51.114;13.780;2022-09-30T10:51:29;15.30;;;2.30;;
572;SDS011;271;51.114;13.780;2022-09-30T10:54:00;15.50;;;2.53;;
572;SDS011;271;51.114;13.780;2022-09-30T10:56:32;16.60;;;2.67;;
572;SDS011;271;51.114;13.780;2022-09-30T10:59:03;15.63;;;2.67;;
572;SDS011;271;51.114;13.780;2022-09-30T11:01:35;15.77;;;2.90;;
572;SDS011;271;51.114;13.780;2022-09-30T11:04:07;16.10;;;2.90;;
572;SDS011;271;51.114;13.780;2022-09-30T11:06:40;15.80;;;2.90;;
572;SDS011;271;51.114;13.780;2022-09-30T11:09:11;16.07;;;2.97;;
572;SDS011;271;51.114;13.780;2022-09-30T11:11:44;15.43;;;2.60;;
572;SDS011;271;51.114;13.780;2022-09-30T11:14:19;16.20;;;3.23;;
572;SDS011;271;51.114;13.780;2022-09-30T11:16:59;16.80;;;2.37;;
572;SDS011;271;51.114;13.780;2022-09-30T11:19:38;15.50;;;2.37;;
572;SDS011;271;51.114;13.780;2022-09-30T11:22:18;15.77;;;2.50;;
572;SDS011;271;51.114;13.780;2022-09-30T11:24:54;14.80;;;1.93;;
572;SDS011;271;51.114;13.780;2022-09-30T11:27:25;14.97;;;1.90;;
572;SDS011;271;51.114;13.780;2022-09-30T11:30:06;15.73;;;2.20;;
572;SDS011;271;51.114;13.780;2022-09-30T11:32:44;16.33;;;2.17;;
572;SDS011;271;51.114;13.780;2022-09-30T11:35:22;14.87;;;1.90;;
572;SDS011;271;51.114;13.780;2022-09-30T11:38:08;15.10;;;2.30;;
572;SDS011;271;51.114;13.780;2022-09-30T11:40:46;14.63;;;1.70;;
572;SDS011;271;51.114;13.780;2022-09-30T11:43:25;14.90;;;2.17;;
572;SDS011;271;51.114;13.780;2022-09-30T11:46:07;15.10;;;2.00;;
572;SDS011;271;51.114;13.780;2022-09-30T11:49:01;15.67;;;1.90;;
572;SDS011;271;51.114;13.780;2022-09-30T11:51:48;15.27;;;1.83;;
572;SDS011;271;51.114;13.780;2022-09-30T11:54:26;14.43;;;1.80;;
572;SDS011;271;51.114;13.780;2022-09-30T11:57:05;15.00;;;1.40;;
572;SDS011;271;51.114;13.780;2022-09-30T11:59:37;15.70;;;2.07;;
572;SDS011;271;51.114;13.780;2022-09-30T12:02:12;14.53;;;1.83;;
572;SDS011;271;51.114;13.780;2022-09-30T12:04:54;14.90;;;1.97;;
572;SDS011;271;51.114;13.780;2022-09-30T12:07:28;15.00;;;2.20;;
572;SDS011;271;51.114;13.780;2022-09-30T12:10:02;15.10;;;1.87;;
572;SDS011;271;51.114;13.780;2022-09-30T12:12:42;14.97;;;2.43;;
572;SDS011;271;51.114;13.780;2022-09-30T12:15:13;15.57;;;2.40;;
572;SDS011;271;51.114;13.780;2022-09-30T12:17:43;14.40;;;1.83;;
572;SDS011;271;51.114;13.780;2022-09-30T12:20:17;15.30;;;2.20;;
572;SDS011;271;51.114;13.780;2022-09-30T12:22:51;16.03;;;2.00;;
572;SDS011;271;51.114;13.780;2022-09-30T12:25:26;15.70;;;2.10;;
572;SDS011;271;51.114;13.780;2022-09-30T12:28:00;15.60;;;1.70;;
572;SDS011;271;51.114;13.780;2022-09-30T12:30:55;14.57;;;1.57;;
572;SDS011;271;51.114;13.780;2022-09-30T12:33:39;14.37;;;1.60;;
572;SDS011;271;51.114;13.780;2022-09-30T12:36:29;15.27;;;1.30;;
572;SDS011;271;51.114;13.780;2022-09-30T12:39:28;14.37;;;1.53;;
572;SDS011;271;51.114;13.780;2022-09-30T12:42:22;14.83;;;1.50;;
572;SDS011;271;51.114;13.780;2022-09-30T12:45:22;13.87;;;1.20;;
572;SDS011;271;51.114;13.780;2022-09-30T12:48:07;15.37;;;1.80;;
572;SDS011;271;51.114;13.780;2022-09-30T12:50:39;14.67;;;1.80;;
572;SDS011;271;51.114;13.780;2022-09-30T12:53:14;15.40;;;2.10;;
572;SDS011;271;51.114;13.780;2022-09-30T12:55:44;14.77;;;1.60;;
572;SDS011;271;51.114;13.780;2022-09-30T12:58:17;14.20;;;1.47;;
572;SDS011;271;51.114;13.780;2022-09-30T13:00:58;16.07;;;1.60;;
572;SDS011;271;51.114;13.780;2022-09-30T13:03:29;14.37;;;1.70;;
572;SDS011;271;51.114;13.780;2022-09-30T13:06:09;14.40;;;1.60;;
572;SDS011;271;51.114;13.780;2022-09-30T13:08:44;14.83;;;1.80;;
572;SDS011;271;51.114;13.780;2022-09-30T13:14:38;15.10;;;2.00;;
572;SDS011;271;51.114;13.780;2022-09-30T13:17:26;15.20;;;2.13;;
572;SDS011;271;51.114;13.780;2022-09-30T13:19:53;14.53;;;2.00;;
572;SDS011;271;51.114;13.780;2022-09-30T13:25:24;15.70;;;2.50;;
572;SDS011;271;51.114;13.780;2022-09-30T13:27:52;14.80;;;2.20;;
572;SDS011;271;51.114;13.780;2022-09-30T13:30:50;16.97;;;1.90;;
572;SDS011;271;51.114;13.780;2022-09-30T13:33:40;14.53;;;1.60;;
572;SDS011;271;51.114;13.780;2022-09-30T13:36:24;14.80;;;1.80;;
572;SDS011;271;51.114;13.780;2022-09-30T13:42:00;15.10;;;1.70;;
572;SDS011;271;51.114;13.780;2022-09-30T13:44:36;14.80;;;1.70;;
572;SDS011;271;51.114;13.780;2022-09-30T13:47:09;14.23;;;1.60;;
572;SDS011;271;51.114;13.780;2022-09-30T13:49:44;14.77;;;1.77;;
572;SDS011;271;51.114;13.780;2022-09-30T13:52:19;15.10;;;1.80;;
572;SDS011;271;51.114;13.780;2022-09-30T13:54:50;15.07;;;1.90;;
572;SDS011;271;51.114;13.780;2022-09-30T13:57:22;15.50;;;1.93;;
572;SDS011;271;51.114;13.780;2022-09-30T13:59:57;15.40;;;1.83;;
572;SDS011;271;51.114;13.780;2022-09-30T14:05:35;15.90;;;2.07;;
572;SDS011;271;51.114;13.780;2022-09-30T14:11:22;14.47;;;1.80;;
572;SDS011;271;51.114;13.780;2022-09-30T14:14:15;16.80;;;2.00;;
572;SDS011;271;51.114;13.780;2022-09-30T14:16:56;14.50;;;1.63;;
572;SDS011;271;51.114;13.780;2022-09-30T14:19:46;15.77;;;2.03;;
572;SDS011;271;51.114;13.780;2022-09-30T14:22:23;14.90;;;2.33;;
572;SDS011;271;51.114;13.780;2022-09-30T14:24:54;15.30;;;1.90;;
572;SDS011;271;51.114;13.780;2022-09-30T14:27:33;15.53;;;1.90;;
572;SDS011;271;51.114;13.780;2022-09-30T14:30:12;14.87;;;2.10;;
572;SDS011;271;51.114;13.780;2022-09-30T14:32:44;17.93;;;2.00;;
572;SDS011;271;51.114;13.780;2022-09-30T14:35:14;15.50;;;1.90;;
572;SDS011;271;51.114;13.780;2022-09-30T14:37:44;15.17;;;2.20;;
572;SDS011;271;51.114;13.780;2022-09-30T14:40:16;14.80;;;1.83;;
572;SDS011;271;51.114;13.780;2022-09-30T14:42:46;14.53;;;1.73;;
572;SDS011;271;51.114;13.780;2022-09-30T14:45:20;16.27;;;2.00;;
572;SDS011;271;51.114;13.780;2022-09-30T14:47:52;14.37;;;1.57;;
572;SDS011;271;51.114;13.780;2022-09-30T14:50:22;15.30;;;2.37;;
572;SDS011;271;51.114;13.780;2022-09-30T14:52:52;14.80;;;1.63;;
572;SDS011;271;51.114;13.780;2022-09-30T14:55:24;16.07;;;2.30;;
572;SDS011;271;51.114;13.780;2022-09-30T14:57:54;15.27;;;1.90;;
572;SDS011;271;51.114;13.780;2022-09-30T15:00:39;15.47;;;1.67;;
572;SDS011;271;51.114;13.780;2022-09-30T15:03:09;14.97;;;1.80;;
572;SDS011;271;51.114;13.780;2022-09-30T15:05:37;15.60;;;2.07;;
572;SDS011;271;51.114;13.780;2022-09-30T15:08:08;15.50;;;2.37;;
572;SDS011;271;51.114;13.780;2022-09-30T15:10:37;16.50;;;2.53;;
572;SDS011;271;51.114;13.780;2022-09-30T15:13:11;15.53;;;1.90;;
572;SDS011;271;51.114;13.780;2022-09-30T15:15:40;14.80;;;2.00;;
572;SDS011;271;51.114;13.780;2022-09-30T15:18:27;15.03;;;2.30;;
572;SDS011;271;51.114;13.780;2022-09-30T15:20:57;16.20;;;3.00;;
572;SDS011;271;51.114;13.780;2022-09-30T15:23:30;17.50;;;4.30;;
572;SDS011;271;51.114;13.780;2022-09-30T15:25:59;19.40;;;4.63;;
572;SDS011;271;51.114;13.780;2022-09-30T15:28:27;17.13;;;3.30;;
572;SDS011;271;51.114;13.780;2022-09-30T15:30:57;15.37;;;2.50;;
572;SDS011;271;51.114;13.780;2022-09-30T15:33:24;15.33;;;2.20;;
572;SDS011;271;51.114;13.780;2022-09-30T15:36:03;17.00;;;2.10;;
572;SDS011;271;51.114;13.780;2022-09-30T15:38:32;14.87;;;2.13;;
572;SDS011;271;51.114;13.780;2022-09-30T15:41:03;15.20;;;2.60;;
572;SDS011;271;51.114;13.780;2022-09-30T15:43:36;15.13;;;2.60;;
572;SDS011;271;51.114;13.780;2022-09-30T15:49:02;16.60;;;2.77;;
572;SDS011;271;51.114;13.780;2022-09-30T15:51:33;15.10;;;2.50;;
572;SDS011;271;51.114;13.780;2022-09-30T15:54:23;15.77;;;2.67;;
572;SDS011;271;51.114;13.780;2022-09-30T15:57:01;15.20;;;2.43;;
572;SDS011;271;51.114;13.780;2022-09-30T15:59:56;14.50;;;2.03;;
572;SDS011;271;51.114;13.780;2022-09-30T16:02:28;15.80;;;2.90;;
572;SDS011;271;51.114;13.780;2022-09-30T16:04:56;15.70;;;2.60;;
572;SDS011;271;51.114;13.780;2022-09-30T16:07:26;15.10;;;2.40;;
572;SDS011;271;51.114;13.780;2022-09-30T16:09:54;15.17;;;2.50;;
572;SDS011;271;51.114;13.780;2022-09-30T16:12:25;14.90;;;2.07;;
572;SDS011;271;51.114;13.780;2022-09-30T16:14:57;15.77;;;2.47;;
572;SDS011;271;51.114;13.780;2022-09-30T16:17:27;15.90;;;2.50;;